createdAt,value
2023-05-24T00:01:32.938Z,9.50
2023-05-24T00:04:06.324Z,9.50
2023-05-24T00:06:40.081Z,9.40
2023-05-24T00:09:11.827Z,9.30
2023-05-24T00:11:42.922Z,9.30
2023-05-24T00:14:14.224Z,9.30
2023-05-24T00:16:46.748Z,9.20
2023-05-24T00:19:18.570Z,9.20
2023-05-24T00:21:52.329Z,9.20
2023-05-24T00:24:23.182Z,9.20
2023-05-24T00:26:54.449Z,9.10
2023-05-24T00:29:25.343Z,9.00
2023-05-24T00:31:56.370Z,9.00
2023-05-24T00:34:27.278Z,9.00
2023-05-24T00:37:00.812Z,9.00
2023-05-24T00:39:31.748Z,8.90
2023-05-24T00:42:03.084Z,8.90
2023-05-24T00:44:34.363Z,8.80
2023-05-24T00:47:05.483Z,8.80
2023-05-24T00:49:36.406Z,8.80
2023-05-24T00:52:13.432Z,8.70
2023-05-24T00:54:44.562Z,8.80
2023-05-24T00:57:16.303Z,8.70
2023-05-24T00:59:47.572Z,8.70
2023-05-24T01:02:21.278Z,8.60
2023-05-24T01:04:52.312Z,8.70
2023-05-24T01:07:46.159Z,8.70
2023-05-24T01:10:24.656Z,8.60
2023-05-24T01:13:06.019Z,8.60
2023-05-24T01:15:45.797Z,8.60
2023-05-24T01:18:22.229Z,8.60
2023-05-24T01:20:57.826Z,8.60
2023-05-24T01:23:41.557Z,8.50
2023-05-24T01:26:23.041Z,8.50
2023-05-24T01:28:57.533Z,8.40
2023-05-24T01:31:28.989Z,8.40
2023-05-24T01:34:00.624Z,8.40
2023-05-24T01:36:31.803Z,8.30
2023-05-24T01:39:02.773Z,8.40
2023-05-24T01:41:43.029Z,8.30
2023-05-24T01:44:27.036Z,8.30
2023-05-24T01:47:07.675Z,8.20
2023-05-24T01:49:44.275Z,8.20
2023-05-24T01:52:18.944Z,8.20
2023-05-24T01:54:56.887Z,8.20
2023-05-24T01:57:29.542Z,8.10
2023-05-24T02:00:05.558Z,8.10
2023-05-24T02:02:36.728Z,8.10
2023-05-24T02:05:08.360Z,8.10
2023-05-24T02:07:39.233Z,8.00
2023-05-24T02:10:11.316Z,8.10
2023-05-24T02:12:42.668Z,8.10
2023-05-24T02:15:17.292Z,8.00
2023-05-24T02:17:48.727Z,8.00
2023-05-24T02:20:22.685Z,8.40
2023-05-24T02:22:53.842Z,7.90
2023-05-24T02:25:25.033Z,8.00
2023-05-24T02:27:56.079Z,7.90
2023-05-24T02:30:30.313Z,7.90
2023-05-24T02:33:01.360Z,7.90
2023-05-24T02:35:33.470Z,7.90
2023-05-24T02:38:06.828Z,7.90
2023-05-24T02:40:37.933Z,7.90
2023-05-24T02:43:09.854Z,7.90
2023-05-24T02:45:43.457Z,7.80
2023-05-24T02:48:14.764Z,7.80
2023-05-24T02:50:45.762Z,7.70
2023-05-24T02:53:16.765Z,7.80
2023-05-24T02:55:47.727Z,7.80
2023-05-24T02:58:18.766Z,7.80
2023-05-24T03:00:52.400Z,7.80
2023-05-24T03:03:23.541Z,7.90
2023-05-24T03:05:54.499Z,7.70
2023-05-24T03:08:25.502Z,7.70
2023-05-24T03:10:56.483Z,7.60
2023-05-24T03:13:27.501Z,7.60
2023-05-24T03:16:01.274Z,7.60
2023-05-24T03:18:32.225Z,7.60
2023-05-24T03:21:03.262Z,7.60
2023-05-24T03:23:34.451Z,7.60
2023-05-24T03:26:06.979Z,7.60
2023-05-24T03:28:37.967Z,7.60
2023-05-24T03:31:12.332Z,7.60
2023-05-24T03:33:43.363Z,7.60
2023-05-24T03:36:14.376Z,7.70
2023-05-24T03:38:45.621Z,7.60
2023-05-24T03:41:16.522Z,7.90
2023-05-24T03:43:47.401Z,7.60
2023-05-24T03:46:21.089Z,7.70
2023-05-24T03:48:52.425Z,7.70
2023-05-24T03:51:24.532Z,7.60
2023-05-24T03:53:55.521Z,7.70
2023-05-24T03:56:26.756Z,7.70
2023-05-24T03:59:00.792Z,7.80
2023-05-24T04:01:36.782Z,7.90
2023-05-24T04:04:08.398Z,7.90
2023-05-24T04:06:42.086Z,8.00
2023-05-24T04:09:13.017Z,8.00
2023-05-24T04:11:43.974Z,8.10
2023-05-24T04:14:14.907Z,8.20
2023-05-24T04:16:48.540Z,8.30
2023-05-24T04:19:19.516Z,8.30
2023-05-24T04:21:50.680Z,8.40
2023-05-24T04:24:21.663Z,8.40
2023-05-24T04:26:53.159Z,8.50
2023-05-24T04:29:26.696Z,8.70
2023-05-24T04:32:02.114Z,9.20
2023-05-24T04:34:33.986Z,9.00
2023-05-24T04:37:05.123Z,9.20
2023-05-24T04:39:36.063Z,9.40
2023-05-24T04:42:07.956Z,9.80
2023-05-24T04:44:40.625Z,10.20
2023-05-24T04:47:14.169Z,10.50
2023-05-24T04:49:45.168Z,10.90
2023-05-24T04:52:16.402Z,11.40
2023-05-24T04:54:47.411Z,12.00
2023-05-24T04:57:18.820Z,12.50
2023-05-24T04:59:49.903Z,12.90
2023-05-24T05:02:23.615Z,13.30
2023-05-24T05:04:54.593Z,14.00
2023-05-24T05:07:25.672Z,14.20
2023-05-24T05:09:56.658Z,14.50
2023-05-24T05:12:27.654Z,14.80
2023-05-24T05:14:58.749Z,15.70
2023-05-24T05:17:32.377Z,15.60
2023-05-24T05:20:03.788Z,15.90
2023-05-24T05:22:34.726Z,16.20
2023-05-24T05:25:05.792Z,16.70
2023-05-24T05:27:36.877Z,16.90
2023-05-24T05:30:09.032Z,17.20
2023-05-24T05:32:42.946Z,17.30
2023-05-24T05:35:16.961Z,17.10
2023-05-24T05:37:48.158Z,16.90
2023-05-24T05:40:19.400Z,16.40
2023-05-24T05:42:50.352Z,15.70
2023-05-24T05:45:21.583Z,15.20
2023-05-24T05:47:55.229Z,14.20
2023-05-24T05:50:26.265Z,13.70
2023-05-24T05:52:58.138Z,13.40
2023-05-24T05:55:29.159Z,13.10
2023-05-24T05:58:00.156Z,12.90
2023-05-24T06:00:31.158Z,12.70
2023-05-24T06:03:04.891Z,12.50
2023-05-24T06:05:35.884Z,12.50
2023-05-24T06:08:06.882Z,12.40
2023-05-24T06:10:37.876Z,12.30
2023-05-24T06:13:08.890Z,12.20
2023-05-24T06:15:40.117Z,12.10
2023-05-24T06:18:13.819Z,12.10
2023-05-24T06:20:45.395Z,12.20
2023-05-24T06:23:16.805Z,12.40
2023-05-24T06:25:47.925Z,12.70
2023-05-24T06:28:19.441Z,13.10
2023-05-24T06:30:50.799Z,13.40
2023-05-24T06:33:25.051Z,14.50
2023-05-24T06:35:56.099Z,14.10
2023-05-24T06:38:28.169Z,13.70
2023-05-24T06:40:59.092Z,13.50
2023-05-24T06:43:30.884Z,13.30
2023-05-24T06:46:01.845Z,13.20
2023-05-24T06:48:35.443Z,13.00
2023-05-24T06:51:06.587Z,13.00
2023-05-24T06:53:37.656Z,13.00
2023-05-24T06:56:09.514Z,13.10
2023-05-24T06:58:40.762Z,13.40
2023-05-24T07:01:12.011Z,13.80
2023-05-24T07:03:45.641Z,13.80
2023-05-24T07:06:18.651Z,13.90
2023-05-24T07:08:49.640Z,14.30
2023-05-24T07:11:20.815Z,14.20
2023-05-24T07:13:51.763Z,14.30
2023-05-24T07:16:22.833Z,14.40
2023-05-24T07:18:58.504Z,13.90
2023-05-24T07:21:29.417Z,13.80
2023-05-24T07:24:00.446Z,13.70
2023-05-24T07:26:31.876Z,13.60
2023-05-24T07:29:02.883Z,13.50
2023-05-24T07:31:35.417Z,13.50
2023-05-24T07:34:09.277Z,13.50
2023-05-24T07:36:41.126Z,13.60
2023-05-24T07:39:15.860Z,13.50
2023-05-24T07:41:46.882Z,13.50
2023-05-24T07:44:18.631Z,13.30
2023-05-24T07:46:49.994Z,13.10
2023-05-24T07:49:23.754Z,13.00
2023-05-24T07:51:57.088Z,12.90
2023-05-24T07:54:28.147Z,12.90
2023-05-24T07:56:59.491Z,12.90
2023-05-24T07:59:30.587Z,13.00
2023-05-24T08:02:08.157Z,12.80
2023-05-24T08:04:42.131Z,12.80
2023-05-24T08:07:13.739Z,12.90
2023-05-24T08:09:44.958Z,12.80
2023-05-24T08:12:17.241Z,12.90
2023-05-24T08:14:48.423Z,13.00
2023-05-24T08:17:19.461Z,13.10
2023-05-24T08:19:53.069Z,13.10
2023-05-24T08:22:24.368Z,13.10
2023-05-24T08:24:55.286Z,13.40
2023-05-24T08:27:28.889Z,13.50
2023-05-24T08:29:59.854Z,13.60
2023-05-24T08:32:30.893Z,13.70
2023-05-24T08:35:19.380Z,13.80
2023-05-24T08:37:52.425Z,14.10
2023-05-24T08:40:24.426Z,14.10
2023-05-24T08:42:56.610Z,13.90
2023-05-24T08:45:29.669Z,13.80
2023-05-24T08:48:01.255Z,13.80
2023-05-24T08:50:35.363Z,13.60
2023-05-24T08:53:09.360Z,13.60
2023-05-24T08:55:44.015Z,13.60
2023-05-24T08:58:16.273Z,13.70
2023-05-24T09:00:47.222Z,13.70
2023-05-24T09:03:19.648Z,13.50
2023-05-24T09:05:54.137Z,13.70
2023-05-24T09:08:25.752Z,13.90
2023-05-24T09:10:57.413Z,14.00
2023-05-24T09:13:31.793Z,13.90
2023-05-24T09:16:03.338Z,14.00
2023-05-24T09:18:34.308Z,14.10
2023-05-24T09:21:08.636Z,14.10
2023-05-24T09:23:39.936Z,14.10
2023-05-24T09:26:11.855Z,14.10
2023-05-24T09:28:44.413Z,13.80
2023-05-24T09:31:15.403Z,13.50
2023-05-24T09:33:46.346Z,13.60
2023-05-24T09:36:20.466Z,13.60
2023-05-24T09:38:51.828Z,13.70
2023-05-24T09:41:23.861Z,13.80
2023-05-24T09:43:54.856Z,13.90
2023-05-24T09:46:27.282Z,14.40
2023-05-24T09:49:04.060Z,14.10
2023-05-24T09:51:43.850Z,14.10
2023-05-24T09:54:16.012Z,14.10
2023-05-24T09:56:49.822Z,14.20
2023-05-24T09:59:23.434Z,14.20
2023-05-24T10:02:10.464Z,14.20
2023-05-24T10:04:41.627Z,14.30
2023-05-24T10:07:15.627Z,14.40
2023-05-24T10:09:48.680Z,14.50
2023-05-24T10:12:23.329Z,14.60
2023-05-24T10:14:57.599Z,14.70
2023-05-24T10:17:29.206Z,14.70
2023-05-24T10:20:00.216Z,14.60
2023-05-24T10:22:34.967Z,14.60
2023-05-24T10:25:10.985Z,14.50
2023-05-24T10:27:42.716Z,14.50
2023-05-24T10:30:19.445Z,14.50
2023-05-24T10:32:51.928Z,14.40
2023-05-24T10:35:23.527Z,14.30
2023-05-24T10:37:57.546Z,14.30
2023-05-24T10:40:29.256Z,14.20
2023-05-24T10:43:00.805Z,14.10
2023-05-24T10:45:37.309Z,14.10
2023-05-24T10:48:41.961Z,14.10
2023-05-24T10:51:36.679Z,14.10
2023-05-24T10:54:21.658Z,14.00
2023-05-24T10:56:53.779Z,13.90
2023-05-24T10:59:35.224Z,13.90
2023-05-24T11:02:14.150Z,14.00
2023-05-24T11:04:49.522Z,14.20
2023-05-24T11:07:22.781Z,14.40
2023-05-24T11:10:02.806Z,14.50
2023-05-24T11:12:38.763Z,14.70
2023-05-24T11:15:12.563Z,14.40
2023-05-24T11:18:14.936Z,14.50
2023-05-24T11:20:47.459Z,14.50
2023-05-24T11:23:19.291Z,14.50
2023-05-24T11:25:53.511Z,14.70
2023-05-24T11:28:24.841Z,14.60
2023-05-24T11:30:56.017Z,14.70
2023-05-24T11:33:27.842Z,14.80
2023-05-24T11:36:00.061Z,14.70
2023-05-24T11:38:31.497Z,14.80
2023-05-24T11:41:05.287Z,14.50
2023-05-24T11:43:36.551Z,14.40
2023-05-24T11:46:07.860Z,14.40
2023-05-24T11:48:40.811Z,14.40
2023-05-24T11:51:13.111Z,14.30
2023-05-24T11:53:46.563Z,14.20
2023-05-24T11:56:21.906Z,14.30
2023-05-24T11:58:53.759Z,14.40
2023-05-24T12:01:29.070Z,14.50
2023-05-24T12:04:00.132Z,14.60
2023-05-24T12:06:38.378Z,14.60
2023-05-24T12:09:13.740Z,14.50
2023-05-24T12:11:50.162Z,14.40
2023-05-24T12:14:23.631Z,14.30
2023-05-24T12:16:58.937Z,14.40
2023-05-24T12:19:37.242Z,14.70
2023-05-24T12:22:09.508Z,14.50
2023-05-24T12:24:40.935Z,14.80
2023-05-24T12:27:14.590Z,14.70
2023-05-24T12:29:49.171Z,14.60
2023-05-24T12:32:20.657Z,15.00
2023-05-24T12:34:53.633Z,15.10
2023-05-24T12:37:24.799Z,14.80
2023-05-24T12:39:56.102Z,15.00
2023-05-24T12:42:29.779Z,15.10
2023-05-24T12:45:01.299Z,14.90
2023-05-24T12:47:32.280Z,14.70
2023-05-24T12:50:04.143Z,14.70
2023-05-24T12:52:35.087Z,15.00
2023-05-24T12:55:07.476Z,14.90
2023-05-24T12:57:45.033Z,14.70
2023-05-24T13:00:17.093Z,14.70
2023-05-24T13:02:48.433Z,14.80
2023-05-24T13:05:19.574Z,14.90
2023-05-24T13:07:50.599Z,15.10
2023-05-24T13:10:22.272Z,15.10
2023-05-24T13:12:56.386Z,15.20
2023-05-24T13:15:29.949Z,15.10
2023-05-24T13:18:01.112Z,14.90
2023-05-24T13:20:32.261Z,14.90
2023-05-24T13:23:03.393Z,14.90
2023-05-24T13:25:34.341Z,14.80
2023-05-24T13:28:08.146Z,14.80
2023-05-24T13:30:39.954Z,14.60
2023-05-24T13:33:10.961Z,14.80
2023-05-24T13:35:42.379Z,14.80
2023-05-24T13:38:14.504Z,14.80
2023-05-24T13:40:45.837Z,14.90
2023-05-24T13:43:19.897Z,15.00
2023-05-24T13:45:50.893Z,15.10
2023-05-24T13:48:21.983Z,15.00
2023-05-24T13:50:53.185Z,15.10
2023-05-24T13:53:26.405Z,15.50
2023-05-24T13:55:57.647Z,15.10
2023-05-24T13:58:31.316Z,15.20
2023-05-24T14:01:03.719Z,15.30
2023-05-24T14:03:34.738Z,15.30
2023-05-24T14:06:07.519Z,15.30
2023-05-24T14:08:38.974Z,15.20
2023-05-24T14:11:14.555Z,15.40
2023-05-24T14:16:22.434Z,15.70
2023-05-24T14:18:53.650Z,15.70
2023-05-24T14:21:27.229Z,15.70
2023-05-24T14:23:58.549Z,15.60
2023-05-24T14:26:29.583Z,15.80
2023-05-24T14:29:03.380Z,15.80
2023-05-24T14:31:35.838Z,15.80
2023-05-24T14:34:06.835Z,15.80
2023-05-24T14:36:38.540Z,15.70
2023-05-24T14:39:10.297Z,15.60
2023-05-24T14:41:41.356Z,15.70
2023-05-24T14:44:15.031Z,15.60
2023-05-24T14:46:46.067Z,15.50
2023-05-24T14:49:24.044Z,15.60
2023-05-24T14:52:07.330Z,15.80
2023-05-24T14:54:38.494Z,15.80
2023-05-24T14:57:12.623Z,15.90
2023-05-24T14:59:52.088Z,15.80
2023-05-24T15:02:31.985Z,15.70
2023-05-24T15:05:11.116Z,15.70
2023-05-24T15:07:47.549Z,15.70
2023-05-24T15:10:18.494Z,15.70
2023-05-24T15:12:49.565Z,15.40
2023-05-24T15:15:25.289Z,15.50
2023-05-24T15:17:57.422Z,15.90
2023-05-24T15:20:28.921Z,16.40
2023-05-24T15:23:00.202Z,16.40
2023-05-24T15:25:31.196Z,16.30
2023-05-24T15:28:02.158Z,16.10
2023-05-24T15:30:35.719Z,16.20
2023-05-24T15:33:07.030Z,16.20
2023-05-24T15:35:38.023Z,16.30
2023-05-24T15:38:09.346Z,16.50
2023-05-24T15:40:42.340Z,16.30
2023-05-24T15:43:15.736Z,16.30
2023-05-24T15:45:50.193Z,16.40
2023-05-24T15:48:21.337Z,16.60
2023-05-24T15:51:39.927Z,16.40
2023-05-24T15:53:43.356Z,16.10
2023-05-24T15:56:14.497Z,16.20
2023-05-24T15:58:46.006Z,16.30
2023-05-24T16:01:19.598Z,16.20
2023-05-24T16:03:50.968Z,16.10
2023-05-24T16:06:22.211Z,16.20
2023-05-24T16:08:53.346Z,16.20
2023-05-24T16:11:24.307Z,16.20
2023-05-24T16:13:57.051Z,16.20
2023-05-24T16:16:30.965Z,15.80
2023-05-24T16:19:01.943Z,16.20
2023-05-24T16:21:33.139Z,16.00
2023-05-24T16:24:05.571Z,16.30
2023-05-24T16:26:36.557Z,16.00
2023-05-24T16:29:10.392Z,16.00
2023-05-24T16:31:44.016Z,15.90
2023-05-24T16:34:15.215Z,15.80
2023-05-24T16:36:47.189Z,15.80
2023-05-24T16:39:18.120Z,15.70
2023-05-24T16:41:49.198Z,15.90
2023-05-24T16:44:20.243Z,15.70
2023-05-24T16:46:53.798Z,15.70
2023-05-24T16:49:25.478Z,15.70
2023-05-24T16:51:56.582Z,15.90
2023-05-24T16:54:27.575Z,15.80
2023-05-24T16:56:58.676Z,15.80
2023-05-24T16:59:29.775Z,15.80
2023-05-24T17:02:03.452Z,15.80
2023-05-24T17:04:34.510Z,15.60
2023-05-24T17:07:05.456Z,15.60
2023-05-24T17:09:36.395Z,16.00
2023-05-24T17:12:07.905Z,15.50
2023-05-24T17:14:38.848Z,15.40
2023-05-24T17:17:12.494Z,15.40
2023-05-24T17:19:43.546Z,15.70
2023-05-24T17:22:14.579Z,15.90
2023-05-24T17:24:45.513Z,15.50
2023-05-24T17:27:20.007Z,15.50
2023-05-24T17:29:53.735Z,15.50
2023-05-24T17:32:27.295Z,15.50
2023-05-24T17:34:58.224Z,15.60
2023-05-24T17:37:29.332Z,15.50
2023-05-24T17:40:02.525Z,15.40
2023-05-24T17:42:33.470Z,15.50
2023-05-24T17:45:04.874Z,15.80
2023-05-24T17:47:39.867Z,15.50
2023-05-24T17:50:12.018Z,15.50
2023-05-24T17:52:43.064Z,15.60
2023-05-24T17:55:14.165Z,15.60
2023-05-24T17:57:45.073Z,15.50
2023-05-24T18:00:17.392Z,15.40
2023-05-24T18:02:51.500Z,15.40
2023-05-24T18:05:22.794Z,15.40
2023-05-24T18:07:53.993Z,15.40
2023-05-24T18:10:25.147Z,15.50
2023-05-24T18:12:56.122Z,15.60
2023-05-24T18:15:27.267Z,15.40
2023-05-24T18:18:00.965Z,15.30
2023-05-24T18:20:31.989Z,15.20
2023-05-24T18:23:03.044Z,15.20
2023-05-24T18:25:34.022Z,15.20
2023-05-24T18:28:05.107Z,15.30
2023-05-24T18:30:36.054Z,15.40
2023-05-24T18:33:09.960Z,15.20
2023-05-24T18:35:41.243Z,15.20
2023-05-24T18:38:12.293Z,15.10
2023-05-24T18:40:43.207Z,15.10
2023-05-24T18:43:14.396Z,15.00
2023-05-24T18:45:45.475Z,14.90
2023-05-24T18:48:19.228Z,14.80
2023-05-24T18:50:50.985Z,14.70
2023-05-24T18:53:21.898Z,14.60
2023-05-24T18:55:52.808Z,14.60
2023-05-24T18:58:23.757Z,14.80
2023-05-24T19:00:54.790Z,14.90
2023-05-24T19:03:28.556Z,14.50
2023-05-24T19:05:59.644Z,14.40
2023-05-24T19:08:30.632Z,14.30
2023-05-24T19:11:01.926Z,14.20
2023-05-24T19:13:32.831Z,14.20
2023-05-24T19:16:04.169Z,14.10
2023-05-24T19:18:37.902Z,14.00
2023-05-24T19:21:09.226Z,14.00
2023-05-24T19:23:40.714Z,13.90
2023-05-24T19:26:12.774Z,13.90
2023-05-24T19:28:50.416Z,13.80
2023-05-24T19:31:22.731Z,13.70
2023-05-24T19:34:00.500Z,13.70
2023-05-24T19:36:36.104Z,13.60
2023-05-24T19:39:10.234Z,13.50
2023-05-24T19:41:41.285Z,13.80
2023-05-24T19:44:12.227Z,13.40
2023-05-24T19:46:43.758Z,13.40
2023-05-24T19:49:19.666Z,13.40
2023-05-24T19:51:50.793Z,13.40
2023-05-24T19:54:21.774Z,13.40
2023-05-24T19:56:55.210Z,13.40
2023-05-24T19:59:26.167Z,13.30
2023-05-24T20:01:57.414Z,13.20
2023-05-24T20:04:31.577Z,13.20
2023-05-24T20:07:02.608Z,13.20
2023-05-24T20:09:33.561Z,13.10
2023-05-24T20:12:04.753Z,13.10
2023-05-24T20:14:36.143Z,13.10
2023-05-24T20:17:07.737Z,13.30
2023-05-24T20:19:41.387Z,13.00
2023-05-24T20:22:12.838Z,13.20
2023-05-24T20:24:43.818Z,12.90
2023-05-24T20:27:14.795Z,12.90
2023-05-24T20:29:46.014Z,12.90
2023-05-24T20:32:17.459Z,13.00
2023-05-24T20:34:51.505Z,12.80
2023-05-24T20:37:22.394Z,12.80
2023-05-24T20:39:53.432Z,12.80
2023-05-24T20:42:24.349Z,12.70
2023-05-24T20:44:55.307Z,12.60
2023-05-24T20:47:28.134Z,12.60
2023-05-24T20:50:04.124Z,12.50
2023-05-24T20:52:35.100Z,12.50
2023-05-24T20:55:06.361Z,12.40
2023-05-24T20:57:37.632Z,12.40
2023-05-24T21:00:10.292Z,12.30
2023-05-24T21:02:41.620Z,12.30
2023-05-24T21:05:15.332Z,11.90
2023-05-24T21:07:46.292Z,12.10
2023-05-24T21:10:20.448Z,12.00
2023-05-24T21:12:51.988Z,12.00
2023-05-24T21:15:23.031Z,12.00
2023-05-24T21:17:54.230Z,11.90
2023-05-24T21:20:27.926Z,11.90
2023-05-24T21:22:59.120Z,11.90
2023-05-24T21:25:30.017Z,11.80
2023-05-24T21:28:01.005Z,11.80
2023-05-24T21:30:33.447Z,11.70
2023-05-24T21:33:04.437Z,11.70
2023-05-24T21:35:38.404Z,11.60
2023-05-24T21:38:09.578Z,11.60
2023-05-24T21:40:40.769Z,11.50
2023-05-24T21:43:12.480Z,11.40
2023-05-24T21:45:43.769Z,12.00
2023-05-24T21:48:14.910Z,11.40
2023-05-24T21:50:48.445Z,11.30
2023-05-24T21:53:19.470Z,11.30
2023-05-24T21:55:50.910Z,11.20
2023-05-24T21:58:21.802Z,11.20
2023-05-24T22:00:53.051Z,11.20
2023-05-24T22:03:26.033Z,11.10
2023-05-24T22:05:59.623Z,11.10
2023-05-24T22:08:30.548Z,11.00
2023-05-24T22:11:01.809Z,11.00
2023-05-24T22:13:32.799Z,10.90
2023-05-24T22:16:03.713Z,10.90
2023-05-24T22:18:34.923Z,10.90
2023-05-24T22:21:08.477Z,10.90
2023-05-24T22:23:39.263Z,10.90
2023-05-24T22:26:10.283Z,10.80
2023-05-24T22:29:03.008Z,10.80
2023-05-24T22:31:36.610Z,10.70
2023-05-24T22:34:07.761Z,10.70
2023-05-24T22:36:41.345Z,10.70
2023-05-24T22:39:12.246Z,10.60
2023-05-24T22:41:43.134Z,10.60
2023-05-24T22:44:14.002Z,10.50
2023-05-24T22:46:45.028Z,10.50
2023-05-24T22:49:19.540Z,10.50
2023-05-24T22:51:55.494Z,10.50
2023-05-24T22:54:28.919Z,10.40
2023-05-24T22:56:59.782Z,10.40
2023-05-24T22:59:32.609Z,10.40
2023-05-24T23:02:03.752Z,10.30
2023-05-24T23:04:34.823Z,10.30
2023-05-24T23:07:13.423Z,10.20
2023-05-24T23:09:45.301Z,10.20
2023-05-24T23:12:18.462Z,10.20
2023-05-24T23:14:49.469Z,10.20
2023-05-24T23:17:22.399Z,10.20
2023-05-24T23:19:53.503Z,10.20
2023-05-24T23:22:26.992Z,10.20
2023-05-24T23:25:00.584Z,10.10
2023-05-24T23:27:31.991Z,10.10
2023-05-24T23:30:02.844Z,10.10
2023-05-24T23:32:33.746Z,10.10
2023-05-24T23:35:04.663Z,10.00
2023-05-24T23:37:38.118Z,10.00
2023-05-24T23:40:10.332Z,9.90
2023-05-24T23:42:41.259Z,10.00
2023-05-24T23:45:15.360Z,10.10
2023-05-24T23:47:46.404Z,10.10
2023-05-24T23:50:17.648Z,10.20
2023-05-24T23:52:51.654Z,10.20
2023-05-24T23:55:22.738Z,10.30
2023-05-24T23:57:53.978Z,10.50
